createdAt,value
2019-01-13T00:00:00.221Z,96373.28
2019-01-13T00:02:31.695Z,96360.92
2019-01-13T00:05:03.003Z,96357.31
2019-01-13T00:07:35.183Z,96356.19
2019-01-13T00:10:07.011Z,96348.80
2019-01-13T00:12:37.975Z,96349.23
2019-01-13T00:15:09.465Z,96355.76
2019-01-13T00:17:40.835Z,96353.59
2019-01-13T00:20:12.330Z,96359.13
2019-01-13T00:22:43.886Z,96356.70
2019-01-13T00:25:15.242Z,96359.80
2019-01-13T00:27:46.516Z,96349.72
2019-01-13T00:30:19.278Z,96333.50
2019-01-13T00:32:51.763Z,96343.58
2019-01-13T00:35:22.809Z,96339.09
2019-01-13T00:37:54.027Z,96347.98
2019-01-13T00:40:25.511Z,96341.09
2019-01-13T00:42:57.012Z,96343.13
2019-01-13T00:45:28.272Z,96341.52
2019-01-13T00:47:59.375Z,96336.23
2019-01-13T00:50:30.427Z,96341.52
2019-01-13T00:53:01.561Z,96340.52
2019-01-13T00:55:32.818Z,96336.78
2019-01-13T00:58:03.931Z,96342.52
2019-01-13T01:00:35.340Z,96348.98
2019-01-13T01:03:06.898Z,96352.84
2019-01-13T01:05:37.879Z,96349.66
2019-01-13T01:08:10.031Z,96350.11
2019-01-13T01:10:41.447Z,96348.17
2019-01-13T01:13:12.409Z,96349.98
2019-01-13T01:15:43.385Z,96348.23
2019-01-13T01:18:15.055Z,96357.31
2019-01-13T01:20:46.178Z,96357.01
2019-01-13T01:23:17.139Z,96353.27
2019-01-13T01:25:48.114Z,96349.41
2019-01-13T01:28:19.151Z,96340.52
2019-01-13T01:30:50.220Z,96344.25
2019-01-13T01:33:25.848Z,96358.25
2019-01-13T01:35:54.569Z,96357.25
2019-01-13T01:38:25.579Z,96360.38
2019-01-13T01:40:56.574Z,96349.29
2019-01-13T01:43:27.857Z,96360.05
2019-01-13T01:45:59.176Z,96355.64
2019-01-13T01:48:30.457Z,96363.22
2019-01-13T01:51:01.431Z,96360.55
2019-01-13T01:53:32.504Z,96363.59
2019-01-13T01:56:03.485Z,96359.80
2019-01-13T01:58:34.682Z,96364.05
2019-01-13T02:01:07.321Z,96363.34
2019-01-13T02:03:38.876Z,96361.58
2019-01-13T02:06:10.112Z,96363.84
2019-01-13T02:08:41.207Z,96363.50
2019-01-13T02:11:12.200Z,96359.72
2019-01-13T02:13:43.177Z,96357.48
2019-01-13T02:16:14.476Z,96354.56
2019-01-13T02:18:46.137Z,96352.95
2019-01-13T02:23:40.359Z,96359.92
2019-01-13T02:26:11.605Z,96367.26
2019-01-13T02:28:42.728Z,96362.60
2019-01-13T02:31:14.503Z,96363.61
2019-01-13T02:33:45.530Z,96346.95
2019-01-13T02:36:17.871Z,96340.50
2019-01-13T02:38:49.150Z,96332.34
2019-01-13T02:41:20.388Z,96326.27
2019-01-13T02:43:52.054Z,96320.36
2019-01-13T02:46:23.107Z,96327.20
2019-01-13T02:48:54.334Z,96322.64
2019-01-13T02:51:25.798Z,96326.81
2019-01-13T02:53:57.338Z,96319.73
2019-01-13T02:56:28.324Z,96318.57
2019-01-13T02:58:59.854Z,96321.67
2019-01-13T03:01:31.473Z,96319.28
2019-01-13T03:04:02.617Z,96314.17
2019-01-13T03:06:33.949Z,96319.02
2019-01-13T03:09:08.072Z,96310.88
2019-01-13T03:11:39.209Z,96311.89
2019-01-13T03:14:10.750Z,96318.41
2019-01-13T03:16:42.332Z,96324.02
2019-01-13T03:19:14.799Z,96322.12
2019-01-13T03:21:46.142Z,96318.61
2019-01-13T03:24:18.116Z,96322.05
2019-01-13T03:26:49.103Z,96327.28
2019-01-13T03:29:20.408Z,96332.59
2019-01-13T03:31:51.999Z,96334.00
2019-01-13T03:34:22.989Z,96330.72
2019-01-13T03:36:53.973Z,96329.90
2019-01-13T03:39:26.435Z,96329.59
2019-01-13T03:41:57.501Z,96323.99
2019-01-13T03:44:28.777Z,96317.79
2019-01-13T03:47:00.271Z,96323.69
2019-01-13T03:49:31.313Z,96325.34
2019-01-13T03:52:02.623Z,96317.79
2019-01-13T03:54:33.678Z,96318.53
2019-01-13T03:57:04.834Z,96316.38
2019-01-13T03:59:36.481Z,96311.70
2019-01-13T04:02:07.541Z,96303.22
2019-01-13T04:04:38.872Z,96303.41
2019-01-13T04:07:09.854Z,96297.31
2019-01-13T04:09:41.568Z,96299.15
2019-01-13T04:12:12.951Z,96297.66
2019-01-13T04:14:44.419Z,96292.23
2019-01-13T04:17:16.108Z,96288.67
2019-01-13T04:19:47.289Z,96280.12
2019-01-13T04:22:18.617Z,96268.89
2019-01-13T04:24:49.901Z,96268.16
2019-01-13T04:27:21.225Z,96268.67
2019-01-13T04:29:52.206Z,96248.00
2019-01-13T04:32:23.189Z,96245.22
2019-01-13T04:34:54.655Z,96258.37
2019-01-13T04:37:26.401Z,96267.26
2019-01-13T04:39:57.774Z,96256.88
2019-01-13T04:42:28.763Z,96252.08
2019-01-13T04:44:59.742Z,96253.39
2019-01-13T04:47:31.284Z,96253.88
2019-01-13T04:50:02.602Z,96253.17
2019-01-13T04:52:34.540Z,96252.39
2019-01-13T04:55:06.769Z,96252.92
2019-01-13T04:57:38.939Z,96256.28
2019-01-13T05:00:14.892Z,96262.27
2019-01-13T05:02:46.728Z,96262.11
2019-01-13T05:05:17.820Z,96261.19
2019-01-13T05:07:48.873Z,96265.76
2019-01-13T05:10:21.166Z,96268.13
2019-01-13T05:12:52.210Z,96266.86
2019-01-13T05:15:23.715Z,96268.76
2019-01-13T05:17:55.022Z,96257.13
2019-01-13T05:20:26.794Z,96256.30
2019-01-13T05:22:58.251Z,96254.35
2019-01-13T05:25:30.035Z,96248.88
2019-01-13T05:28:01.426Z,96246.59
2019-01-13T05:30:32.429Z,96238.45
2019-01-13T05:33:03.670Z,96230.75
2019-01-13T05:35:34.775Z,96225.09
2019-01-13T05:38:06.134Z,96224.16
2019-01-13T05:40:37.385Z,96218.84
2019-01-13T05:43:08.459Z,96221.83
2019-01-13T05:45:39.489Z,96226.82
2019-01-13T05:48:10.842Z,96227.31
2019-01-13T05:50:42.346Z,96214.45
2019-01-13T05:53:13.517Z,96210.18
2019-01-13T05:55:44.668Z,96197.94
2019-01-13T05:58:16.301Z,96195.63
2019-01-13T06:00:47.476Z,96185.96
2019-01-13T06:03:20.748Z,96180.73
2019-01-13T06:05:53.043Z,96176.25
2019-01-13T06:08:24.098Z,96174.58
2019-01-13T06:10:55.084Z,96175.86
2019-01-13T06:13:27.375Z,96173.34
2019-01-13T06:15:58.840Z,96178.62
2019-01-13T06:18:30.376Z,96175.59
2019-01-13T06:21:02.263Z,96171.47
2019-01-13T06:23:33.608Z,96170.16
2019-01-13T06:26:04.660Z,96174.56
2019-01-13T06:28:35.699Z,96177.90
2019-01-13T06:31:06.741Z,96168.14
2019-01-13T06:33:37.721Z,96172.88
2019-01-13T06:36:09.041Z,96163.59
2019-01-13T06:38:40.036Z,96152.84
2019-01-13T06:41:11.283Z,96156.16
2019-01-13T06:43:42.563Z,96164.52
2019-01-13T06:46:14.195Z,96169.33
2019-01-13T06:48:45.741Z,96168.45
2019-01-13T06:51:17.070Z,96173.59
2019-01-13T06:53:48.837Z,96176.77
2019-01-13T06:56:20.049Z,96168.95
2019-01-13T06:58:51.044Z,96158.16
2019-01-13T07:01:22.233Z,96154.27
2019-01-13T07:03:53.945Z,96156.16
2019-01-13T07:06:25.101Z,96153.55
2019-01-13T07:08:57.445Z,96142.41
2019-01-13T07:11:28.660Z,96143.81
2019-01-13T07:13:59.940Z,96141.53
2019-01-13T07:16:31.188Z,96141.81
2019-01-13T07:19:02.851Z,96144.44
2019-01-13T07:21:34.451Z,96143.32
2019-01-13T07:24:06.260Z,96139.89
2019-01-13T07:26:37.882Z,96130.91
2019-01-13T07:29:09.117Z,96119.47
2019-01-13T07:31:40.407Z,96123.70
2019-01-13T07:34:11.636Z,96118.16
2019-01-13T07:36:42.614Z,96119.09
2019-01-13T07:39:14.248Z,96113.81
2019-01-13T07:41:45.300Z,96113.42
2019-01-13T07:44:17.554Z,96110.41
2019-01-13T07:46:48.879Z,96109.59
2019-01-13T07:49:19.861Z,96108.58
2019-01-13T07:51:52.360Z,96106.88
2019-01-13T07:54:23.451Z,96098.50
2019-01-13T07:56:54.648Z,96095.79
2019-01-13T07:59:27.203Z,96086.86
2019-01-13T08:01:58.193Z,96089.15
2019-01-13T08:04:29.807Z,96090.27
2019-01-13T08:07:00.786Z,96082.70
2019-01-13T08:09:32.084Z,96088.75
2019-01-13T08:12:03.487Z,96075.77
2019-01-13T08:14:34.919Z,96068.50
2019-01-13T08:17:06.329Z,96068.84
2019-01-13T08:19:37.321Z,96069.42
2019-01-13T08:22:08.558Z,96070.20
2019-01-13T08:24:39.680Z,96069.23
2019-01-13T08:27:11.099Z,96059.87
2019-01-13T08:29:42.345Z,96056.83
2019-01-13T08:32:15.634Z,96057.35
2019-01-13T08:34:47.805Z,96062.70
2019-01-13T08:37:19.136Z,96053.45
2019-01-13T08:39:50.127Z,96062.03
2019-01-13T08:42:21.696Z,96055.77
2019-01-13T08:44:52.692Z,96062.60
2019-01-13T08:47:23.736Z,96064.09
2019-01-13T08:49:54.805Z,96071.13
2019-01-13T08:52:25.865Z,96070.69
2019-01-13T08:54:57.678Z,96071.16
2019-01-13T08:57:29.225Z,96066.03
2019-01-13T09:00:00.295Z,96066.53
2019-01-13T09:02:32.382Z,96054.31
2019-01-13T09:05:05.270Z,96054.46
2019-01-13T09:07:36.388Z,96059.58
2019-01-13T09:10:09.666Z,96056.78
2019-01-13T09:12:44.588Z,96050.16
2019-01-13T09:15:24.724Z,96056.44
2019-01-13T09:17:56.444Z,96051.45
2019-01-13T09:20:32.560Z,96055.86
2019-01-13T09:23:04.490Z,96066.23
2019-01-13T09:25:37.802Z,96068.36
2019-01-13T09:28:09.977Z,96068.55
2019-01-13T09:30:41.332Z,96065.94
2019-01-13T09:33:12.307Z,96061.53
2019-01-13T09:35:43.358Z,96060.22
2019-01-13T09:38:15.584Z,96049.23
2019-01-13T09:40:47.312Z,96053.78
2019-01-13T09:43:18.404Z,96050.35
2019-01-13T09:45:49.977Z,96055.28
2019-01-13T09:48:22.257Z,96051.93
2019-01-13T09:50:53.559Z,96052.13
2019-01-13T09:53:25.376Z,96054.75
2019-01-13T09:55:56.368Z,96052.33
2019-01-13T09:58:28.277Z,96049.59
2019-01-13T10:00:59.975Z,96031.74
2019-01-13T10:03:31.612Z,96024.19
2019-01-13T10:06:02.844Z,96021.14
2019-01-13T10:08:33.854Z,96023.37
2019-01-13T10:11:06.185Z,96023.47
2019-01-13T10:13:37.245Z,96020.76
2019-01-13T10:16:08.286Z,96013.50
2019-01-13T10:18:39.645Z,96012.90
2019-01-13T10:21:10.812Z,96017.00
2019-01-13T10:23:42.400Z,96007.05
2019-01-13T10:26:13.776Z,95989.03
2019-01-13T10:28:45.521Z,95984.05
2019-01-13T10:31:16.954Z,95972.28
2019-01-13T10:33:48.843Z,95964.73
2019-01-13T10:36:20.236Z,95965.15
2019-01-13T10:38:51.255Z,95956.39
2019-01-13T10:41:22.760Z,95959.01
2019-01-13T10:43:54.177Z,95959.50
2019-01-13T10:46:25.221Z,95952.59
2019-01-13T10:48:56.930Z,95952.00
2019-01-13T10:51:28.308Z,95949.76
2019-01-13T10:53:59.675Z,95937.17
2019-01-13T10:56:30.953Z,95936.19
2019-01-13T10:59:02.871Z,95919.69
2019-01-13T11:01:34.523Z,95924.32
2019-01-13T11:04:06.037Z,95920.78
2019-01-13T11:06:37.771Z,95912.95
2019-01-13T11:09:14.265Z,95903.70
2019-01-13T11:11:45.572Z,95889.72
2019-01-13T11:14:16.856Z,95880.36
2019-01-13T11:16:47.932Z,95883.89
2019-01-13T11:19:19.543Z,95872.50
2019-01-13T11:21:51.020Z,95869.49
2019-01-13T11:24:22.317Z,95868.61
2019-01-13T11:26:53.521Z,95858.45
2019-01-13T11:29:25.166Z,95856.63
2019-01-13T11:31:56.529Z,95844.26
2019-01-13T11:34:27.525Z,95836.02
2019-01-13T11:36:59.040Z,95835.19
2019-01-13T11:39:30.813Z,95814.19
2019-01-13T11:42:02.406Z,95815.69
2019-01-13T11:44:34.891Z,95812.36
2019-01-13T11:47:06.075Z,95804.13
2019-01-13T11:49:37.808Z,95791.16
2019-01-13T11:52:09.214Z,95789.31
2019-01-13T11:54:40.317Z,95779.91
2019-01-13T11:57:11.803Z,95772.36
2019-01-13T11:59:43.056Z,95759.69
2019-01-13T12:02:14.161Z,95771.16
2019-01-13T12:04:45.397Z,95760.57
2019-01-13T12:07:16.835Z,95754.75
2019-01-13T12:09:48.707Z,95750.05
2019-01-13T12:12:20.329Z,95746.84
2019-01-13T12:14:51.723Z,95734.34
2019-01-13T12:17:24.003Z,95717.39
2019-01-13T12:19:55.302Z,95716.98
2019-01-13T12:22:26.313Z,95720.98
2019-01-13T12:24:57.614Z,95710.33
2019-01-13T12:27:29.266Z,95711.84
2019-01-13T12:30:00.626Z,95704.27
2019-01-13T12:32:31.845Z,95697.09
2019-01-13T12:35:04.316Z,95689.07
2019-01-13T12:37:35.379Z,95698.92
2019-01-13T12:40:09.694Z,95704.64
2019-01-13T12:42:40.743Z,95691.57
2019-01-13T12:45:13.604Z,95684.47
2019-01-13T12:47:44.852Z,95661.45
2019-01-13T12:50:20.130Z,95663.20
2019-01-13T12:52:51.058Z,95667.59
2019-01-13T12:55:22.309Z,95653.02
2019-01-13T12:57:54.399Z,95658.42
2019-01-13T13:00:26.173Z,95664.22
2019-01-13T13:02:57.771Z,95660.67
2019-01-13T13:05:29.326Z,95648.89
2019-01-13T13:08:00.745Z,95654.89
2019-01-13T13:10:47.972Z,95652.39
2019-01-13T13:13:18.990Z,95649.98
2019-01-13T13:15:50.562Z,95638.47
2019-01-13T13:18:21.988Z,95640.35
2019-01-13T13:20:53.362Z,95647.64
2019-01-13T13:23:24.614Z,95630.48
2019-01-13T13:25:55.617Z,95630.14
2019-01-13T13:28:26.657Z,95628.16
2019-01-13T13:30:57.743Z,95606.56
2019-01-13T13:33:29.053Z,95593.67
2019-01-13T13:36:00.066Z,95604.72
2019-01-13T13:38:31.388Z,95611.20
2019-01-13T13:41:02.965Z,95619.88
2019-01-13T13:43:32.974Z,95622.38
2019-01-13T13:46:04.934Z,95604.61
2019-01-13T13:48:36.212Z,95609.03
2019-01-13T13:51:08.373Z,95607.30
2019-01-13T13:53:39.601Z,95606.13
2019-01-13T13:56:11.869Z,95592.81
2019-01-13T13:58:42.906Z,95595.08
2019-01-13T14:01:14.064Z,95601.91
2019-01-13T14:03:46.179Z,95606.35
2019-01-13T14:06:17.278Z,95611.00
2019-01-13T14:08:48.505Z,95609.05
2019-01-13T14:11:19.860Z,95613.91
2019-01-13T14:13:50.877Z,95588.95
2019-01-13T14:16:21.937Z,95603.06
2019-01-13T14:18:53.325Z,95587.95
2019-01-13T14:21:24.390Z,95586.17
2019-01-13T14:23:56.072Z,95587.47
2019-01-13T14:26:27.222Z,95560.41
2019-01-13T14:28:58.855Z,95567.53
2019-01-13T14:31:30.186Z,95555.45
2019-01-13T14:34:01.548Z,95563.46
2019-01-13T14:36:32.899Z,95561.30
2019-01-13T14:39:06.255Z,95576.25
2019-01-13T14:41:37.375Z,95563.58
2019-01-13T14:44:09.110Z,95580.03
2019-01-13T14:46:40.101Z,95564.23
2019-01-13T14:49:11.387Z,95564.84
2019-01-13T14:51:42.743Z,95539.78
2019-01-13T14:54:14.035Z,95537.51
2019-01-13T14:56:46.359Z,95541.26
2019-01-13T14:59:17.419Z,95535.39
2019-01-13T15:01:49.356Z,95529.59
2019-01-13T15:04:20.700Z,95498.95
2019-01-13T15:06:52.631Z,95497.14
2019-01-13T15:09:24.729Z,95505.06
2019-01-13T15:11:55.993Z,95481.25
2019-01-13T15:14:27.073Z,95494.36
2019-01-13T15:16:58.080Z,95492.16
2019-01-13T15:19:29.118Z,95491.96
2019-01-13T15:22:00.405Z,95486.47
2019-01-13T15:24:31.785Z,95501.39
2019-01-13T15:27:02.837Z,95496.73
2019-01-13T15:29:34.045Z,95516.06
2019-01-13T15:32:05.462Z,95504.14
2019-01-13T15:34:36.800Z,95501.80
2019-01-13T15:37:08.145Z,95515.78
2019-01-13T15:39:39.890Z,95509.50
2019-01-13T15:42:10.940Z,95522.19
2019-01-13T15:44:42.312Z,95519.53
2019-01-13T15:47:13.663Z,95494.39
2019-01-13T15:49:44.979Z,95492.18
2019-01-13T15:52:16.179Z,95483.25
2019-01-13T15:54:47.980Z,95490.31
2019-01-13T15:57:19.633Z,95487.91
2019-01-13T15:59:50.719Z,95494.73
2019-01-13T16:02:21.993Z,95495.17
2019-01-13T16:04:53.374Z,95480.85
2019-01-13T16:07:24.841Z,95453.72
2019-01-13T16:09:55.955Z,95452.56
2019-01-13T16:12:27.275Z,95439.78
2019-01-13T16:15:00.289Z,95450.81
2019-01-13T16:17:31.472Z,95441.41
2019-01-13T16:20:02.811Z,95458.41
2019-01-13T16:22:33.934Z,95433.55
2019-01-13T16:25:05.862Z,95436.59
2019-01-13T16:27:37.819Z,95443.98
2019-01-13T16:30:14.339Z,95438.08
2019-01-13T16:32:45.639Z,95453.83
2019-01-13T16:35:16.955Z,95439.57
2019-01-13T16:37:50.088Z,95453.05
2019-01-13T16:40:23.619Z,95434.07
2019-01-13T16:42:54.825Z,95425.22
2019-01-13T16:45:25.936Z,95425.85
2019-01-13T16:47:57.328Z,95421.86
2019-01-13T16:50:28.938Z,95407.27
2019-01-13T16:53:00.337Z,95405.09
2019-01-13T16:55:31.414Z,95402.30
2019-01-13T16:58:02.899Z,95396.89
2019-01-13T17:00:33.979Z,95393.27
2019-01-13T17:03:05.779Z,95383.20
2019-01-13T17:05:37.203Z,95370.39
2019-01-13T17:08:08.929Z,95383.27
2019-01-13T17:10:40.179Z,95382.19
2019-01-13T17:13:11.428Z,95377.78
2019-01-13T17:15:42.448Z,95374.48
2019-01-13T17:18:13.980Z,95361.66
2019-01-13T17:20:45.584Z,95357.49
2019-01-13T17:23:17.568Z,95358.02
2019-01-13T17:25:49.952Z,95351.55
2019-01-13T17:28:21.542Z,95353.61
2019-01-13T17:30:53.429Z,95347.22
2019-01-13T17:33:24.980Z,95340.23
2019-01-13T17:35:56.296Z,95334.23
2019-01-13T17:38:27.600Z,95340.75
2019-01-13T17:40:58.964Z,95315.63
2019-01-13T17:43:30.274Z,95304.59
2019-01-13T17:46:01.468Z,95317.42
2019-01-13T17:48:32.908Z,95329.25
2019-01-13T17:51:03.968Z,95337.92
2019-01-13T17:53:35.412Z,95347.55
2019-01-13T17:56:07.398Z,95340.77
2019-01-13T17:58:38.507Z,95342.59
2019-01-13T18:01:35.745Z,95343.66
2019-01-13T18:04:06.741Z,95329.28
2019-01-13T18:06:38.345Z,95334.47
2019-01-13T18:09:10.487Z,95346.28
2019-01-13T18:11:41.512Z,95344.44
2019-01-13T18:14:13.182Z,95351.77
2019-01-13T18:16:44.469Z,95346.64
2019-01-13T18:19:15.748Z,95367.11
2019-01-13T18:21:47.029Z,95357.19
2019-01-13T18:24:18.375Z,95361.88
2019-01-13T18:26:49.811Z,95346.31
2019-01-13T18:29:21.107Z,95363.41
2019-01-13T18:31:52.758Z,95351.89
2019-01-13T18:34:23.784Z,95348.86
2019-01-13T18:36:55.467Z,95354.69
2019-01-13T18:39:27.324Z,95349.19
2019-01-13T18:41:58.558Z,95348.70
2019-01-13T18:44:29.903Z,95360.78
2019-01-13T18:47:01.308Z,95357.43
2019-01-13T18:49:32.355Z,95328.69
2019-01-13T18:52:03.653Z,95321.59
2019-01-13T18:54:34.930Z,95314.31
2019-01-13T18:57:06.069Z,95300.84
2019-01-13T18:59:37.083Z,95303.86
2019-01-13T19:02:08.214Z,95302.51
2019-01-13T19:04:39.616Z,95304.36
2019-01-13T19:07:11.040Z,95284.41
2019-01-13T19:09:42.799Z,95281.89
2019-01-13T19:12:14.330Z,95273.60
2019-01-13T19:15:01.190Z,95271.35
2019-01-13T19:17:32.490Z,95275.47
2019-01-13T19:20:15.217Z,95272.86
2019-01-13T19:22:49.704Z,95266.78
2019-01-13T19:25:30.820Z,95266.88
2019-01-13T19:28:01.868Z,95265.55
2019-01-13T19:30:33.139Z,95257.02
2019-01-13T19:33:04.444Z,95267.64
2019-01-13T19:35:35.537Z,95267.69
2019-01-13T19:38:07.093Z,95277.73
2019-01-13T19:40:38.212Z,95278.64
2019-01-13T19:43:09.595Z,95260.41
2019-01-13T19:45:41.693Z,95277.23
2019-01-13T19:48:13.146Z,95280.55
2019-01-13T19:50:44.601Z,95285.80
2019-01-13T19:53:15.855Z,95277.50
2019-01-13T19:55:47.152Z,95282.31
2019-01-13T19:58:18.434Z,95277.97
2019-01-13T20:00:49.787Z,95278.00
2019-01-13T20:03:22.080Z,95291.18
2019-01-13T20:05:53.417Z,95275.42
2019-01-13T20:08:25.310Z,95277.95
2019-01-13T20:10:57.296Z,95245.87
2019-01-13T20:13:28.623Z,95276.61
2019-01-13T20:15:59.951Z,95270.63
2019-01-13T20:18:30.965Z,95253.56
2019-01-13T20:21:01.978Z,95260.17
2019-01-13T20:23:33.429Z,95245.06
2019-01-13T20:26:04.703Z,95247.97
2019-01-13T20:28:36.049Z,95255.20
2019-01-13T20:31:07.211Z,95256.34
2019-01-13T20:33:38.974Z,95255.73
2019-01-13T20:36:10.305Z,95258.19
2019-01-13T20:38:41.659Z,95266.60
2019-01-13T20:41:12.734Z,95255.46
2019-01-13T20:43:43.717Z,95262.88
2019-01-13T20:46:14.801Z,95265.88
2019-01-13T20:48:45.887Z,95264.64
2019-01-13T20:51:16.888Z,95278.94
2019-01-13T20:53:47.902Z,95274.78
2019-01-13T20:56:19.014Z,95265.25
2019-01-13T20:58:50.294Z,95278.46
2019-01-13T21:01:22.441Z,95283.71
2019-01-13T21:03:53.773Z,95297.11
2019-01-13T21:06:25.971Z,95300.10
2019-01-13T21:08:57.185Z,95298.97
2019-01-13T21:11:28.342Z,95315.13
2019-01-13T21:13:59.813Z,95323.13
2019-01-13T21:16:30.866Z,95328.07
2019-01-13T21:19:02.563Z,95347.66
2019-01-13T21:21:34.203Z,95323.19
2019-01-13T21:24:05.796Z,95317.75
2019-01-13T21:26:37.041Z,95321.45
2019-01-13T21:29:08.592Z,95324.59
2019-01-13T21:31:40.297Z,95326.66
2019-01-13T21:34:11.625Z,95324.56
2019-01-13T21:36:42.901Z,95318.45
2019-01-13T21:39:13.871Z,95307.51
2019-01-13T21:41:44.987Z,95298.17
2019-01-13T21:44:16.308Z,95304.10
2019-01-13T21:46:48.027Z,95297.71
2019-01-13T21:49:19.239Z,95291.08
2019-01-13T21:51:50.550Z,95295.64
2019-01-13T21:54:22.673Z,95304.68
2019-01-13T21:56:54.265Z,95293.83
2019-01-13T21:59:25.832Z,95301.30
2019-01-13T22:01:56.900Z,95295.19
2019-01-13T22:04:28.175Z,95299.23
2019-01-13T22:06:59.303Z,95289.67
2019-01-13T22:09:30.528Z,95291.25
2019-01-13T22:12:01.522Z,95293.13
2019-01-13T22:14:32.750Z,95295.02
2019-01-13T22:17:04.039Z,95280.63
2019-01-13T22:19:35.790Z,95291.14
2019-01-13T22:22:06.847Z,95285.84
2019-01-13T22:24:38.842Z,95295.54
2019-01-13T22:27:10.366Z,95281.72
2019-01-13T22:29:41.392Z,95278.36
2019-01-13T22:32:12.727Z,95285.73
2019-01-13T22:34:44.084Z,95270.49
2019-01-13T22:37:15.796Z,95267.87
2019-01-13T22:39:47.112Z,95262.44
2019-01-13T22:42:18.236Z,95263.06
2019-01-13T22:44:49.533Z,95260.98
2019-01-13T22:47:21.211Z,95260.86
2019-01-13T22:49:53.209Z,95263.56
2019-01-13T22:52:24.201Z,95251.84
2019-01-13T22:54:55.182Z,95260.44
2019-01-13T22:57:26.443Z,95258.45
2019-01-13T22:59:57.413Z,95252.89
2019-01-13T23:02:28.398Z,95267.09
2019-01-13T23:05:00.868Z,95261.48
2019-01-13T23:07:32.127Z,95245.87
2019-01-13T23:10:03.183Z,95248.32
2019-01-13T23:12:35.381Z,95258.05
2019-01-13T23:15:06.781Z,95248.92
2019-01-13T23:17:37.926Z,95251.84
2019-01-13T23:20:09.926Z,95253.39
2019-01-13T23:22:40.975Z,95249.12
2019-01-13T23:25:12.265Z,95251.29
2019-01-13T23:27:43.334Z,95253.28
2019-01-13T23:30:14.775Z,95255.72
2019-01-13T23:32:46.017Z,95260.67
2019-01-13T23:35:17.134Z,95262.52
2019-01-13T23:37:48.520Z,95285.67
2019-01-13T23:40:19.578Z,95318.27
2019-01-13T23:42:50.907Z,95351.97
2019-01-13T23:45:22.283Z,95367.61
2019-01-13T23:47:53.889Z,95359.14
2019-01-13T23:50:25.742Z,95357.89
2019-01-13T23:52:56.733Z,95359.42
2019-01-13T23:55:27.763Z,95361.66
2019-01-13T23:57:59.236Z,95338.68
